createdAt,value
2023-01-28T00:00:09.471Z,100067.47
2023-01-28T00:02:37.752Z,100068.62
2023-01-28T00:05:06.839Z,100061.43
2023-01-28T00:07:35.001Z,100057.55
2023-01-28T00:10:04.104Z,100051.35
2023-01-28T00:12:33.607Z,100050.04
2023-01-28T00:15:01.888Z,100051.13
2023-01-28T00:17:30.579Z,100050.69
2023-01-28T00:19:58.878Z,100049.54
2023-01-28T00:22:27.146Z,100047.86
2023-01-28T00:24:55.521Z,100046.17
2023-01-28T00:27:23.799Z,100044.10
2023-01-28T00:29:51.992Z,100038.05
2023-01-28T00:32:20.394Z,100037.86
2023-01-28T00:34:50.214Z,100036.88
2023-01-28T00:37:18.525Z,100032.96
2023-01-28T00:39:47.363Z,100030.95
2023-01-28T00:42:16.602Z,100032.59
2023-01-28T00:44:44.721Z,100031.25
2023-01-28T00:47:13.128Z,100033.31
2023-01-28T00:49:41.343Z,100033.20
2023-01-28T00:52:11.729Z,100032.61
2023-01-28T00:54:40.019Z,100029.51
2023-01-28T00:57:08.280Z,100030.55
2023-01-28T00:59:36.667Z,100029.10
2023-01-28T01:02:12.690Z,100024.14
2023-01-28T01:04:41.124Z,100021.48
2023-01-28T01:07:09.497Z,100020.73
2023-01-28T01:09:37.880Z,100016.41
2023-01-28T01:12:06.776Z,100017.10
2023-01-28T01:14:37.322Z,100011.55
2023-01-28T01:17:05.592Z,100006.88
2023-01-28T01:19:33.900Z,100003.11
2023-01-28T01:22:02.737Z,99992.99
2023-01-28T01:24:34.156Z,99986.35
2023-01-28T01:27:02.977Z,99985.58
2023-01-28T01:29:31.757Z,99989.23
2023-01-28T01:32:00.948Z,99988.73
2023-01-28T01:34:29.185Z,99990.19
2023-01-28T01:36:57.558Z,99987.17
2023-01-28T01:39:26.357Z,99983.77
2023-01-28T01:41:54.638Z,99982.34
2023-01-28T01:45:01.734Z,99986.55
2023-01-28T01:47:49.430Z,99983.34
2023-01-28T01:50:33.936Z,99986.60
2023-01-28T01:53:12.447Z,99989.41
2023-01-28T01:55:43.801Z,99990.83
2023-01-28T01:58:13.974Z,99990.81
2023-01-28T02:00:46.344Z,99994.61
2023-01-28T06:20:51.920Z,99974.76
2023-01-28T06:23:20.588Z,99974.23
2023-01-28T06:25:48.784Z,99967.98
2023-01-28T06:28:17.976Z,99969.24
2023-01-28T06:30:49.728Z,99969.19
2023-01-28T06:33:19.027Z,99966.13
2023-01-28T06:35:49.306Z,99967.98
2023-01-28T06:38:17.673Z,99969.23
2023-01-28T06:40:52.375Z,99969.29
2023-01-28T06:43:28.251Z,99964.11
2023-01-28T06:45:59.210Z,99968.58
2023-01-28T06:48:27.726Z,99965.52
2023-01-28T06:50:56.253Z,99960.48
2023-01-28T06:53:24.617Z,99962.52
2023-01-28T10:10:43.994Z,99887.64
2023-01-28T10:13:30.949Z,99888.55
2023-01-28T10:16:14.512Z,99882.55
2023-01-28T10:19:02.725Z,99873.81
2023-01-28T10:21:39.519Z,99866.20
2023-01-28T10:24:16.638Z,99861.81
2023-01-28T10:26:45.578Z,99858.45
2023-01-28T10:29:19.796Z,99858.27
2023-01-28T10:31:55.687Z,99854.21
2023-01-28T10:34:24.337Z,99852.73
2023-01-28T10:36:53.449Z,99851.35
2023-01-28T10:39:22.562Z,99849.25
2023-01-28T10:41:57.773Z,99845.25
2023-01-28T10:44:34.794Z,99840.59
2023-01-28T10:47:07.338Z,99839.61
2023-01-28T10:49:39.077Z,99837.92
2023-01-28T10:52:12.134Z,99831.96
2023-01-28T10:54:40.336Z,99835.91
2023-01-28T10:57:14.644Z,99830.39
2023-01-28T10:59:43.013Z,99829.70
2023-01-28T11:02:33.001Z,99830.42
2023-01-28T11:05:03.373Z,99835.05
2023-01-28T11:07:32.269Z,99836.47
2023-01-28T11:10:00.745Z,99832.06
2023-01-28T11:12:30.331Z,99835.85
2023-01-28T11:14:59.833Z,99832.04
2023-01-28T11:17:32.381Z,99829.27
2023-01-28T11:20:02.008Z,99830.74
2023-01-28T11:22:38.495Z,99833.01
2023-01-28T11:25:24.815Z,99834.73
2023-01-28T11:27:53.400Z,99830.27
2023-01-28T11:30:23.935Z,99830.34
2023-01-28T11:33:19.336Z,99827.04
2023-01-28T11:36:07.557Z,99829.18
2023-01-28T11:38:36.012Z,99825.39
2023-01-28T11:41:04.339Z,99820.71
2023-01-28T11:43:32.821Z,99826.23
2023-01-28T11:46:19.252Z,99827.93
2023-01-28T11:49:06.981Z,99824.70
2023-01-28T11:51:56.956Z,99823.18
2023-01-28T11:54:44.649Z,99816.99
2023-01-28T11:57:24.315Z,99821.41
2023-01-28T12:00:20.875Z,99820.98
2023-01-28T12:02:57.592Z,99820.38
2023-01-28T12:05:44.586Z,99821.86
2023-01-28T12:08:28.660Z,99821.68
2023-01-28T12:10:56.844Z,99815.35
2023-01-28T12:13:43.913Z,99808.54
2023-01-28T12:16:31.254Z,99810.14
2023-01-28T12:19:39.220Z,99805.52
2023-01-28T12:22:29.703Z,99815.67
2023-01-28T12:25:10.132Z,99810.52
2023-01-28T12:27:52.806Z,99811.48
2023-01-28T12:30:44.403Z,99807.48
2023-01-28T12:33:28.213Z,99807.63
2023-01-28T12:36:17.906Z,99810.80
2023-01-28T12:39:08.471Z,99808.69
2023-01-28T12:41:41.560Z,99808.36
2023-01-28T12:44:15.177Z,99809.92
2023-01-28T12:47:10.664Z,99811.03
2023-01-28T12:50:04.221Z,99815.25
2023-01-28T12:52:37.339Z,99815.63
2023-01-28T12:55:15.997Z,99817.19
2023-01-28T12:57:46.971Z,99813.99
2023-01-28T13:00:31.291Z,99814.77
2023-01-28T13:03:12.135Z,99809.26
2023-01-28T13:05:44.532Z,99804.77
2023-01-28T13:08:24.251Z,99806.74
2023-01-28T13:10:53.231Z,99813.64
2023-01-28T13:13:42.389Z,99816.14
2023-01-28T13:16:11.386Z,99819.99
2023-01-28T13:18:51.605Z,99820.08
2023-01-28T13:21:26.406Z,99822.65
2023-01-28T13:24:20.822Z,99817.65
2023-01-28T13:26:56.065Z,99825.52
2023-01-28T13:29:24.690Z,99826.88
2023-01-28T13:31:57.573Z,99820.20
2023-01-28T13:34:33.732Z,99820.34
2023-01-28T13:37:23.554Z,99824.24
2023-01-28T13:40:00.338Z,99825.67
2023-01-28T13:42:31.683Z,99820.85
2023-01-28T13:45:15.578Z,99816.52
2023-01-28T13:47:45.678Z,99819.38
2023-01-28T13:50:20.499Z,99821.66
2023-01-28T13:52:53.767Z,99828.11
2023-01-28T13:55:42.777Z,99829.57
2023-01-28T13:58:41.090Z,99830.55
2023-01-28T14:01:47.269Z,99830.09
2023-01-28T14:04:22.141Z,99832.84
2023-01-28T14:06:55.251Z,99832.97
2023-01-28T14:09:42.133Z,99838.45
2023-01-28T14:12:13.816Z,99840.29
2023-01-28T14:15:08.961Z,99841.43
2023-01-28T22:00:37.125Z,99780.23
2023-01-28T22:03:03.964Z,99778.85
2023-01-28T22:05:31.989Z,99775.11
2023-01-28T22:07:58.847Z,99774.92
2023-01-28T22:10:25.990Z,99771.63
2023-01-28T22:12:52.739Z,99773.85
